Time;durP1;ratioP1;P1;durP2;ratioP2;P2;SDS_P1;SDS_P2;PMS_P1;PMS_P2;Temp;Humidity;BMP_temperature;BMP_pressure;BME280_temperature;BME280_humidity;BME280_pressure;Samples;Min_cycle;Max_cycle;Signal;HPM_P1;HPM_P2
2021/09/24 00:01:46;;;;;;;103.93;44.85;;;8.60;95.70;;;;;;5039392;28;20460;-70
2021/09/24 00:04:12;;;;;;;72.03;32.90;;;8.50;96.10;;;;;;5056019;28;20029;-70
2021/09/24 00:06:41;;;;;;;44.13;21.08;;;8.40;96.50;;;;;;5039009;28;20190;-73
2021/09/24 00:09:07;;;;;;;31.08;15.57;;;8.40;97.00;;;;;;5055700;28;20137;-68
2021/09/24 00:11:34;;;;;;;28.45;14.88;;;8.40;97.40;;;;;;5039044;28;20140;-69
2021/09/24 00:14:00;;;;;;;23.55;13.05;;;8.40;97.90;;;;;;5055777;28;20025;-69
2021/09/24 00:16:25;;;;;;;17.20;10.23;;;8.30;98.00;;;;;;5038972;28;20025;-70
2021/09/24 00:18:51;;;;;;;16.02;10.13;;;8.30;98.20;;;;;;5039047;28;20044;-69
2021/09/24 00:21:17;;;;;;;18.27;13.70;;;8.30;98.30;;;;;;5056781;28;20036;-70
2021/09/24 00:23:42;;;;;;;20.73;16.60;;;8.30;98.20;;;;;;5057073;28;20109;-71
2021/09/24 00:26:08;;;;;;;23.90;19.25;;;8.30;98.30;;;;;;5038954;28;20029;-69
2021/09/24 00:28:34;;;;;;;25.85;18.90;;;8.20;98.30;;;;;;5056385;28;20070;-69
2021/09/24 00:30:59;;;;;;;20.13;15.35;;;8.20;98.40;;;;;;5056744;28;20021;-69
2021/09/24 00:33:27;;;;;;;22.02;16.42;;;8.20;98.50;;;;;;5056525;28;20090;-70
2021/09/24 00:35:55;;;;;;;20.05;14.70;;;8.20;98.60;;;;;;5056643;28;20029;-69
2021/09/24 00:38:21;;;;;;;18.90;13.90;;;8.10;98.80;;;;;;5055023;28;20035;-70
2021/09/24 00:40:46;;;;;;;22.00;15.23;;;8.10;99.00;;;;;;5056723;28;20466;-72
2021/09/24 00:43:12;;;;;;;25.83;20.10;;;8.00;99.30;;;;;;5055186;28;20124;-69
2021/09/24 00:45:38;;;;;;;21.73;17.63;;;8.00;99.60;;;;;;5056124;28;20455;-70
2021/09/24 00:48:04;;;;;;;19.25;16.73;;;8.00;99.80;;;;;;5055029;28;20368;-70
2021/09/24 00:50:30;;;;;;;20.17;16.23;;;8.00;99.90;;;;;;5054899;28;20025;-68
2021/09/24 00:52:56;;;;;;;32.10;25.38;;;8.00;99.90;;;;;;5038293;28;20025;-70
2021/09/24 00:55:22;;;;;;;22.38;15.55;;;8.00;99.90;;;;;;5055990;28;20025;-69
2021/09/24 00:57:48;;;;;;;16.33;11.23;;;8.00;99.80;;;;;;5056357;28;20564;-69
2021/09/24 01:00:15;;;;;;;13.13;9.05;;;8.00;99.70;;;;;;5054837;28;20072;-69
2021/09/24 01:02:41;;;;;;;10.43;7.75;;;8.00;99.70;;;;;;5037888;28;20475;-70
2021/09/24 01:05:09;;;;;;;9.77;7.22;;;7.90;99.70;;;;;;5054807;28;20025;-73
2021/09/24 01:07:40;;;;;;;8.30;6.18;;;7.90;99.90;;;;;;5054285;28;20499;-70
2021/09/24 01:10:07;;;;;;;8.25;6.85;;;7.80;99.90;;;;;;5056494;28;20037;-73
2021/09/24 01:12:34;;;;;;;10.05;7.90;;;7.80;99.90;;;;;;5055671;28;20028;-70
2021/09/24 01:15:01;;;;;;;8.38;6.38;;;7.80;99.90;;;;;;5055880;28;20025;-70
2021/09/24 01:17:27;;;;;;;12.07;6.95;;;7.80;99.90;;;;;;5055928;28;20027;-70
2021/09/24 01:19:53;;;;;;;9.88;7.18;;;7.80;99.90;;;;;;5037629;28;20108;-70
2021/09/24 01:22:19;;;;;;;10.13;6.93;;;7.80;99.90;;;;;;5055434;28;20029;-70
2021/09/24 01:24:45;;;;;;;9.43;6.93;;;7.80;99.90;;;;;;5055514;28;20021;-71
2021/09/24 01:27:10;;;;;;;9.55;6.93;;;7.80;99.90;;;;;;5054376;28;20049;-70
2021/09/24 01:29:36;;;;;;;9.52;7.47;;;7.80;99.90;;;;;;5055450;28;20041;-70
2021/09/24 01:32:02;;;;;;;10.00;7.40;;;7.80;99.90;;;;;;5037809;28;20120;-70
2021/09/24 01:34:28;;;;;;;10.02;7.22;;;7.80;99.90;;;;;;5053538;28;20446;-73
2021/09/24 01:36:54;;;;;;;9.95;7.53;;;7.80;99.90;;;;;;5055520;28;20108;-70
2021/09/24 01:39:19;;;;;;;9.80;7.07;;;7.80;99.90;;;;;;5037516;28;20036;-70
2021/09/24 01:41:47;;;;;;;10.02;7.15;;;7.80;99.90;;;;;;5055255;28;20455;-71
2021/09/24 01:44:14;;;;;;;9.48;7.50;;;7.80;99.90;;;;;;5055107;28;20029;-70
2021/09/24 01:46:42;;;;;;;10.85;6.70;;;7.80;99.90;;;;;;5055221;28;20032;-71
2021/09/24 01:49:09;;;;;;;8.32;6.53;;;7.90;99.90;;;;;;5055188;28;20108;-69
2021/09/24 01:51:37;;;;;;;9.85;7.28;;;7.90;99.90;;;;;;5055453;28;20033;-70
2021/09/24 01:54:03;;;;;;;9.13;6.97;;;7.90;99.90;;;;;;5037292;28;20033;-72
2021/09/24 01:56:30;;;;;;;9.32;7.30;;;7.90;99.80;;;;;;5054946;28;20032;-71
2021/09/24 01:58:55;;;;;;;9.10;6.88;;;7.90;99.60;;;;;;5054845;28;20024;-71
2021/09/24 02:01:21;;;;;;;9.65;6.68;;;7.90;99.40;;;;;;5037107;28;20021;-70
2021/09/24 02:03:47;;;;;;;9.27;7.45;;;7.90;99.40;;;;;;5036741;28;20064;-73
2021/09/24 02:06:13;;;;;;;9.80;6.70;;;7.90;99.30;;;;;;5037030;28;20403;-70
2021/09/24 02:08:39;;;;;;;9.02;7.25;;;7.90;99.30;;;;;;5054729;28;20475;-71
2021/09/24 02:11:07;;;;;;;10.00;7.32;;;7.90;99.30;;;;;;5054829;28;20515;-71
2021/09/24 02:13:33;;;;;;;11.55;8.15;;;7.90;99.20;;;;;;5037081;28;20079;-70
2021/09/24 02:15:59;;;;;;;11.82;7.10;;;8.00;99.20;;;;;;5054437;28;20032;-71
2021/09/24 02:18:25;;;;;;;11.55;7.10;;;8.00;99.20;;;;;;5054867;28;20438;-71
2021/09/24 02:20:51;;;;;;;9.98;7.50;;;8.10;99.00;;;;;;5037420;28;20033;-69
2021/09/24 02:23:16;;;;;;;11.55;7.85;;;8.10;98.70;;;;;;5037046;28;20021;-71
2021/09/24 02:25:42;;;;;;;9.82;7.35;;;8.20;98.40;;;;;;5036511;28;20036;-70
2021/09/24 02:28:08;;;;;;;10.43;7.90;;;8.20;98.10;;;;;;5054140;28;20028;-69
2021/09/24 02:30:34;;;;;;;9.82;7.63;;;8.30;97.80;;;;;;5036541;28;20435;-70
2021/09/24 02:32:59;;;;;;;10.95;7.55;;;8.30;97.60;;;;;;5054008;28;20459;-71
2021/09/24 02:35:25;;;;;;;12.30;8.10;;;8.40;97.20;;;;;;5036415;28;20082;-71
2021/09/24 02:37:51;;;;;;;12.27;8.90;;;8.40;97.00;;;;;;5054102;28;20032;-70
2021/09/24 02:40:19;;;;;;;12.27;8.48;;;8.50;96.50;;;;;;5054131;28;20025;-71
2021/09/24 02:42:45;;;;;;;14.35;8.40;;;8.60;96.10;;;;;;5054262;28;20021;-71
2021/09/24 02:45:11;;;;;;;11.20;8.15;;;8.60;95.70;;;;;;5035966;28;20029;-70
2021/09/24 02:47:38;;;;;;;10.13;8.07;;;8.70;95.20;;;;;;5053972;28;20021;-71
2021/09/24 02:50:06;;;;;;;12.60;8.73;;;8.80;95.20;;;;;;5036081;28;20546;-71
2021/09/24 02:52:32;;;;;;;18.88;11.50;;;8.80;94.70;;;;;;5054198;28;20223;-69
2021/09/24 02:54:57;;;;;;;22.42;12.73;;;8.80;94.30;;;;;;5035999;28;20539;-69
2021/09/24 02:57:23;;;;;;;21.63;13.18;;;8.90;94.00;;;;;;5036138;28;20029;-70
2021/09/24 02:59:48;;;;;;;21.17;15.30;;;8.90;93.80;;;;;;5035934;28;20055;-68
2021/09/24 03:02:15;;;;;;;30.70;18.73;;;8.90;93.80;;;;;;5035869;28;20064;-69
2021/09/24 03:04:40;;;;;;;23.48;15.05;;;9.00;93.90;;;;;;5054122;28;20083;-69
2021/09/24 03:07:06;;;;;;;13.93;10.25;;;9.00;93.70;;;;;;5053716;28;20392;-72
2021/09/24 03:09:32;;;;;;;18.88;10.10;;;9.00;93.50;;;;;;5053630;28;20072;-69
2021/09/24 03:11:57;;;;;;;15.23;9.70;;;9.10;93.40;;;;;;5053329;28;20061;-69
2021/09/24 03:14:23;;;;;;;14.02;9.20;;;9.10;93.20;;;;;;5035499;28;20028;-69
2021/09/24 03:16:49;;;;;;;14.75;10.45;;;9.10;93.00;;;;;;5053416;28;20025;-68
2021/09/24 03:19:19;;;;;;;19.73;13.43;;;9.10;92.90;;;;;;5035666;28;20025;-72
2021/09/24 03:21:45;;;;;;;24.67;16.88;;;9.10;92.90;;;;;;5036115;28;20464;-72
2021/09/24 03:24:11;;;;;;;23.60;16.50;;;9.20;92.80;;;;;;5065953;28;20111;-71
2021/09/24 03:26:37;;;;;;;23.73;15.20;;;9.20;92.90;;;;;;5055401;28;20119;-71
2021/09/24 03:29:03;;;;;;;23.60;16.33;;;9.20;92.80;;;;;;5055349;28;20119;-70
2021/09/24 03:31:29;;;;;;;25.70;18.83;;;9.20;92.70;;;;;;5055247;28;20029;-70
2021/09/24 03:33:54;;;;;;;28.85;18.77;;;9.20;92.60;;;;;;5055422;28;20048;-73
2021/09/24 03:36:20;;;;;;;25.50;15.77;;;9.20;92.70;;;;;;5056044;28;20115;-70
2021/09/24 03:38:46;;;;;;;17.73;11.30;;;9.20;92.60;;;;;;5073210;28;20032;-73
2021/09/24 03:41:12;;;;;;;16.60;10.73;;;9.30;92.60;;;;;;5055412;28;20201;-69
2021/09/24 03:43:38;;;;;;;16.40;11.40;;;9.20;92.60;;;;;;5073350;28;20024;-71
2021/09/24 03:46:04;;;;;;;22.80;14.88;;;9.30;92.60;;;;;;5055119;28;20489;-71
2021/09/24 03:48:30;;;;;;;23.17;15.95;;;9.30;92.60;;;;;;5073284;28;20029;-73
2021/09/24 03:50:55;;;;;;;24.25;14.50;;;9.20;92.50;;;;;;5055846;28;20032;-72
2021/09/24 03:53:21;;;;;;;20.67;14.35;;;9.30;92.50;;;;;;5073196;28;20032;-66
2021/09/24 03:55:48;;;;;;;22.75;13.35;;;9.30;92.50;;;;;;5072820;28;20013;-66
2021/09/24 03:58:14;;;;;;;20.02;12.18;;;9.30;92.40;;;;;;5072955;28;20074;-66
2021/09/24 04:00:40;;;;;;;22.77;11.93;;;9.30;92.50;;;;;;5052307;28;20550;-68
2021/09/24 04:03:05;;;;;;;15.38;10.20;;;9.30;92.40;;;;;;5038418;28;20395;-68
2021/09/24 04:05:31;;;;;;;16.13;8.50;;;9.30;92.40;;;;;;5051596;28;20025;-67
2021/09/24 04:07:57;;;;;;;15.13;8.85;;;9.30;92.30;;;;;;5069439;28;20041;-66
2021/09/24 04:10:22;;;;;;;14.35;8.43;;;9.30;92.30;;;;;;5068068;28;20044;-65
2021/09/24 04:12:48;;;;;;;12.23;8.30;;;9.30;92.20;;;;;;5072180;28;20032;-70
2021/09/24 04:15:14;;;;;;;14.13;9.23;;;9.30;92.30;;;;;;5070999;28;20458;-69
2021/09/24 04:17:39;;;;;;;14.68;9.25;;;9.30;92.30;;;;;;5071492;28;20355;-70
2021/09/24 04:20:05;;;;;;;18.48;10.15;;;9.30;92.40;;;;;;5072643;28;20017;-69
2021/09/24 04:22:31;;;;;;;14.43;9.35;;;9.30;92.30;;;;;;5063973;28;20029;-70
2021/09/24 04:24:57;;;;;;;12.65;8.98;;;9.30;92.40;;;;;;5056622;28;20032;-70
2021/09/24 04:27:22;;;;;;;17.65;9.32;;;9.40;92.50;;;;;;5038581;28;20032;-69
2021/09/24 04:29:48;;;;;;;19.90;11.52;;;9.40;92.50;;;;;;5050975;28;20035;-71
2021/09/24 04:32:14;;;;;;;12.05;9.13;;;9.40;92.50;;;;;;5067535;28;20070;-70
2021/09/24 04:34:39;;;;;;;12.77;9.63;;;9.40;92.60;;;;;;5076744;28;20433;-69
2021/09/24 04:37:06;;;;;;;16.05;10.00;;;9.50;92.70;;;;;;5076553;28;20029;-67
2021/09/24 04:39:31;;;;;;;13.15;9.38;;;9.50;92.80;;;;;;5076093;28;20028;-69
2021/09/24 04:41:57;;;;;;;15.25;10.00;;;9.50;92.90;;;;;;5072985;28;20028;-69
2021/09/24 04:44:23;;;;;;;16.13;9.75;;;9.50;93.00;;;;;;5055784;28;20032;-68
2021/09/24 04:46:48;;;;;;;14.90;10.38;;;9.50;93.20;;;;;;5056084;28;20100;-69
2021/09/24 04:49:14;;;;;;;14.50;10.25;;;9.50;93.20;;;;;;5038120;28;20121;-69
2021/09/24 04:51:41;;;;;;;16.38;12.13;;;9.50;93.20;;;;;;5057126;28;20036;-69
2021/09/24 04:54:06;;;;;;;21.60;14.27;;;9.60;93.30;;;;;;5055768;28;20483;-72
2021/09/24 04:56:32;;;;;;;40.05;26.10;;;9.60;93.50;;;;;;5037747;28;20097;-70
2021/09/24 04:58:58;;;;;;;30.05;21.20;;;9.60;93.70;;;;;;5038201;28;20035;-69
2021/09/24 05:01:23;;;;;;;26.88;20.30;;;9.60;93.90;;;;;;5060177;28;20051;-70
2021/09/24 05:03:49;;;;;;;27.70;18.92;;;9.60;94.00;;;;;;5055855;28;20032;-70
2021/09/24 05:06:15;;;;;;;19.00;12.55;;;9.60;94.00;;;;;;5056174;28;20055;-70
2021/09/24 05:08:40;;;;;;;15.38;10.32;;;9.70;94.20;;;;;;5055585;28;20120;-69
2021/09/24 05:11:06;;;;;;;17.00;11.05;;;9.70;94.00;;;;;;5038336;28;20045;-70
2021/09/24 05:13:32;;;;;;;17.55;11.60;;;9.70;94.00;;;;;;5074854;28;20459;-69
2021/09/24 05:15:57;;;;;;;13.70;9.80;;;9.70;94.20;;;;;;5073884;28;20066;-70
2021/09/24 05:18:23;;;;;;;15.05;11.18;;;9.70;94.30;;;;;;5071307;28;20498;-69
2021/09/24 05:20:49;;;;;;;19.95;12.52;;;9.80;94.60;;;;;;5058693;28;20035;-72
2021/09/24 05:23:15;;;;;;;36.47;20.73;;;9.80;94.90;;;;;;5055768;28;20024;-70
2021/09/24 05:25:42;;;;;;;62.60;34.58;;;9.80;95.00;;;;;;5072340;28;20039;-73
2021/09/24 05:28:07;;;;;;;72.78;40.78;;;9.70;95.30;;;;;;5049814;28;20115;-72
2021/09/24 05:30:33;;;;;;;34.38;21.15;;;9.70;95.70;;;;;;5059867;28;20164;-73
2021/09/24 05:32:59;;;;;;;31.67;20.75;;;9.70;96.10;;;;;;5049085;28;20480;-71
2021/09/24 05:35:25;;;;;;;31.25;19.17;;;9.70;96.40;;;;;;5080274;28;20101;-71
2021/09/24 05:37:51;;;;;;;29.48;18.67;;;9.60;96.70;;;;;;5057000;28;20059;-70
2021/09/24 05:40:17;;;;;;;17.75;11.30;;;9.60;97.30;;;;;;5075142;28;20387;-70
2021/09/24 05:42:42;;;;;;;18.55;11.68;;;9.60;97.60;;;;;;5056866;28;20039;-70
2021/09/24 05:45:14;;;;;;;16.58;11.13;;;9.50;97.70;;;;;;5075560;28;20037;-70
2021/09/24 05:47:41;;;;;;;15.93;10.18;;;9.50;98.50;;;;;;5056842;28;20028;-70
2021/09/24 05:50:14;;;;;;;18.48;10.93;;;9.40;98.90;;;;;;5074910;28;20391;-70
2021/09/24 05:52:51;;;;;;;16.35;9.85;;;9.40;99.60;;;;;;5075235;28;20462;-69
2021/09/24 05:55:19;;;;;;;17.70;10.82;;;9.40;99.90;;;;;;5070030;28;20039;-69
2021/09/24 05:57:45;;;;;;;16.08;10.48;;;9.30;99.90;;;;;;5076958;28;20028;-70
2021/09/24 06:00:15;;;;;;;15.27;10.07;;;9.30;99.90;;;;;;5094868;28;20409;-70
2021/09/24 06:02:41;;;;;;;16.10;10.82;;;9.30;99.90;;;;;;5063822;28;20527;-71
2021/09/24 06:05:08;;;;;;;16.08;10.57;;;9.30;99.90;;;;;;5094920;28;20020;-71
2021/09/24 06:07:33;;;;;;;18.20;11.57;;;9.30;99.90;;;;;;5035688;28;20049;-71
2021/09/24 06:09:59;;;;;;;18.23;10.48;;;9.30;99.90;;;;;;5027356;28;20107;-70
2021/09/24 06:12:25;;;;;;;19.58;10.90;;;9.30;99.90;;;;;;5034948;28;20383;-70
2021/09/24 06:14:51;;;;;;;17.27;11.48;;;9.30;99.90;;;;;;5042413;28;20026;-74
2021/09/24 06:17:17;;;;;;;18.02;10.80;;;9.30;99.90;;;;;;5054234;28;20479;-73
2021/09/24 06:19:43;;;;;;;17.80;11.27;;;9.30;99.90;;;;;;5043127;28;20060;-73
2021/09/24 06:22:09;;;;;;;16.10;11.55;;;9.30;99.90;;;;;;5051939;28;20462;-68
2021/09/24 06:24:36;;;;;;;17.02;10.18;;;9.30;99.90;;;;;;5045298;28;20029;-78
2021/09/24 06:27:02;;;;;;;16.77;10.07;;;9.30;99.90;;;;;;5040166;28;20459;-75
2021/09/24 06:29:27;;;;;;;15.77;10.18;;;9.30;99.90;;;;;;5042104;28;20029;-72
2021/09/24 06:31:53;;;;;;;14.15;8.93;;;9.40;99.90;;;;;;5054345;28;20036;-78
2021/09/24 06:34:19;;;;;;;16.52;10.35;;;9.40;99.90;;;;;;5035977;28;20029;-73
2021/09/24 06:36:44;;;;;;;13.50;9.43;;;9.30;99.90;;;;;;5038774;28;20032;-75
2021/09/24 06:39:10;;;;;;;15.40;9.57;;;9.30;99.90;;;;;;5020600;28;20079;-71
2021/09/24 06:41:37;;;;;;;21.45;12.80;;;9.30;99.90;;;;;;5025129;28;20034;-72
2021/09/24 06:44:03;;;;;;;14.00;9.23;;;9.30;99.90;;;;;;5017553;28;20491;-73
2021/09/24 06:46:28;;;;;;;14.82;9.65;;;9.30;99.90;;;;;;5010579;28;20026;-73
2021/09/24 06:48:54;;;;;;;17.45;11.65;;;9.40;99.90;;;;;;5010747;28;20428;-74
2021/09/24 06:51:20;;;;;;;15.82;10.40;;;9.40;99.90;;;;;;5012051;28;20104;-74
2021/09/24 06:53:46;;;;;;;13.98;10.10;;;9.40;99.90;;;;;;5012301;28;20675;-75
2021/09/24 06:56:12;;;;;;;14.35;10.55;;;9.40;99.90;;;;;;5011840;28;20132;-73
2021/09/24 06:58:38;;;;;;;15.70;9.95;;;9.50;99.90;;;;;;5012290;28;20028;-73
2021/09/24 07:01:04;;;;;;;14.05;10.13;;;9.50;99.90;;;;;;5013062;28;20025;-72
2021/09/24 07:03:29;;;;;;;12.68;9.68;;;9.50;99.90;;;;;;5014173;28;20080;-72
2021/09/24 07:05:55;;;;;;;15.52;10.38;;;9.50;99.90;;;;;;5022887;28;20055;-72
2021/09/24 07:08:21;;;;;;;12.93;9.75;;;9.50;99.90;;;;;;5053731;28;20037;-71
2021/09/24 07:10:46;;;;;;;14.25;9.57;;;9.50;99.90;;;;;;5053814;28;20056;-72
2021/09/24 07:13:12;;;;;;;13.05;9.45;;;9.40;99.90;;;;;;5053671;28;20028;-70
2021/09/24 07:15:43;;;;;;;12.55;9.00;;;9.50;99.90;;;;;;5036095;28;20054;-72
2021/09/24 07:18:10;;;;;;;15.10;10.18;;;9.50;99.90;;;;;;5053668;28;20028;-71
2021/09/24 07:20:36;;;;;;;13.77;9.48;;;9.50;99.90;;;;;;5035414;28;20112;-72
2021/09/24 07:23:02;;;;;;;13.80;9.35;;;9.50;99.90;;;;;;5053468;28;20032;-72
2021/09/24 07:25:27;;;;;;;15.18;10.10;;;9.50;99.90;;;;;;5053935;28;20029;-71
2021/09/24 07:27:53;;;;;;;15.63;10.80;;;9.60;99.90;;;;;;5053468;28;20025;-71
2021/09/24 07:30:19;;;;;;;17.83;13.15;;;9.60;99.90;;;;;;5053317;28;20025;-71
2021/09/24 07:32:45;;;;;;;12.70;9.27;;;9.60;99.90;;;;;;5053260;28;20135;-72
2021/09/24 07:35:10;;;;;;;15.70;10.02;;;9.60;99.90;;;;;;5053156;28;20033;-71
2021/09/24 07:37:36;;;;;;;16.05;12.13;;;9.60;99.90;;;;;;5035350;28;20037;-71
2021/09/24 07:40:04;;;;;;;50.92;30.38;;;9.60;99.90;;;;;;5053248;28;20028;-71
2021/09/24 07:42:30;;;;;;;28.83;18.67;;;9.60;99.90;;;;;;5035430;28;20109;-70
2021/09/24 07:44:55;;;;;;;20.27;12.35;;;9.70;99.90;;;;;;5053402;28;20109;-71
2021/09/24 07:47:21;;;;;;;19.42;12.52;;;9.60;99.90;;;;;;5053405;28;20021;-72
2021/09/24 07:49:47;;;;;;;27.00;14.77;;;9.60;99.90;;;;;;5052923;28;20387;-70
2021/09/24 07:52:13;;;;;;;19.60;12.57;;;9.60;99.90;;;;;;5053472;28;20363;-70
2021/09/24 07:54:39;;;;;;;29.30;18.08;;;9.60;99.90;;;;;;5036089;28;20116;-72
2021/09/24 07:57:05;;;;;;;23.38;12.70;;;9.60;99.90;;;;;;5054620;28;20057;-75
2021/09/24 07:59:31;;;;;;;18.67;12.05;;;9.60;99.90;;;;;;5039294;28;20044;-72
2021/09/24 08:01:57;;;;;;;22.20;12.55;;;9.60;99.90;;;;;;5039345;28;20032;-72
2021/09/24 08:04:23;;;;;;;21.90;13.07;;;9.60;99.90;;;;;;5057115;28;20033;-71
2021/09/24 08:06:48;;;;;;;17.95;11.63;;;9.60;99.90;;;;;;5056938;28;20045;-71
2021/09/24 08:09:14;;;;;;;16.50;10.43;;;9.60;99.90;;;;;;5057008;28;20036;-72
2021/09/24 08:11:40;;;;;;;16.33;11.38;;;9.50;99.90;;;;;;5056933;28;20083;-71
2021/09/24 08:14:06;;;;;;;18.83;12.68;;;9.50;99.90;;;;;;5057169;28;20079;-72
2021/09/24 08:16:32;;;;;;;15.75;11.25;;;9.50;99.90;;;;;;5039145;28;20422;-71
2021/09/24 08:18:57;;;;;;;17.55;10.73;;;9.50;99.90;;;;;;5056864;28;20059;-71
2021/09/24 08:21:23;;;;;;;20.83;13.48;;;9.40;99.90;;;;;;5039043;28;20025;-70
2021/09/24 08:23:53;;;;;;;21.13;12.68;;;9.40;99.90;;;;;;5038901;28;20036;-71
2021/09/24 08:26:21;;;;;;;23.05;12.75;;;9.40;99.90;;;;;;5056677;28;20398;-71
2021/09/24 08:28:47;;;;;;;20.05;12.15;;;9.40;99.90;;;;;;5056746;28;20036;-69
2021/09/24 08:31:12;;;;;;;18.75;11.45;;;9.40;99.90;;;;;;5056480;28;20033;-72
2021/09/24 08:33:38;;;;;;;20.27;12.13;;;9.40;99.90;;;;;;5056618;28;20056;-71
2021/09/24 08:36:04;;;;;;;28.98;16.17;;;9.40;99.90;;;;;;5056333;28;20029;-74
2021/09/24 08:38:30;;;;;;;16.10;10.68;;;9.50;99.90;;;;;;5056331;28;20061;-71
2021/09/24 08:40:56;;;;;;;22.80;13.02;;;9.50;99.90;;;;;;5056433;28;20104;-71
2021/09/24 08:43:22;;;;;;;17.58;10.88;;;9.50;99.90;;;;;;5056569;28;20398;-71
2021/09/24 08:45:48;;;;;;;21.77;13.23;;;9.50;99.90;;;;;;5056158;28;20036;-70
2021/09/24 08:48:15;;;;;;;20.75;13.02;;;9.50;99.90;;;;;;5056022;28;20157;-71
2021/09/24 08:50:42;;;;;;;25.08;15.15;;;9.50;99.90;;;;;;5039013;28;20361;-68
2021/09/24 08:53:11;;;;;;;23.08;14.02;;;9.50;99.90;;;;;;5056295;28;20029;-69
2021/09/24 08:55:38;;;;;;;28.55;16.23;;;9.50;99.90;;;;;;5038163;28;20021;-71
2021/09/24 08:58:04;;;;;;;23.77;14.52;;;9.60;99.90;;;;;;5056233;28;20056;-70
2021/09/24 09:00:32;;;;;;;24.70;14.57;;;9.50;99.90;;;;;;5038029;28;20517;-70
2021/09/24 09:03:13;;;;;;;25.80;15.38;;;9.50;99.90;;;;;;5056009;28;20032;-70
2021/09/24 09:05:56;;;;;;;24.73;15.70;;;9.60;99.90;;;;;;5056440;28;20033;-70
2021/09/24 09:08:24;;;;;;;17.10;11.48;;;9.50;99.90;;;;;;5037396;28;20380;-71
2021/09/24 09:10:56;;;;;;;20.90;13.95;;;9.60;99.90;;;;;;5037885;28;20039;-72
2021/09/24 09:13:27;;;;;;;19.80;13.00;;;9.60;99.90;;;;;;5038504;28;20459;-72
2021/09/24 09:15:58;;;;;;;18.60;13.10;;;9.60;99.90;;;;;;5038123;28;20112;-72
2021/09/24 09:18:25;;;;;;;21.63;14.88;;;9.60;99.90;;;;;;5055767;28;20032;-73
2021/09/24 09:20:52;;;;;;;30.88;17.90;;;9.60;99.90;;;;;;5037950;28;20115;-71
2021/09/24 09:23:20;;;;;;;24.38;14.75;;;9.60;99.90;;;;;;5037686;28;20033;-72
2021/09/24 09:25:49;;;;;;;28.52;17.25;;;9.60;99.90;;;;;;5055678;28;20029;-71
2021/09/24 09:28:32;;;;;;;61.10;27.73;;;9.60;99.90;;;;;;5037540;28;20191;-72
2021/09/24 09:30:59;;;;;;;27.80;16.77;;;9.70;99.90;;;;;;5055621;28;20472;-72
2021/09/24 09:33:25;;;;;;;26.08;15.63;;;9.70;99.90;;;;;;5037726;28;20387;-71
2021/09/24 09:35:55;;;;;;;22.27;13.93;;;9.60;99.90;;;;;;5055591;28;20060;-72
2021/09/24 09:38:39;;;;;;;29.35;16.92;;;9.60;99.90;;;;;;5037578;28;20120;-72
2021/09/24 09:41:11;;;;;;;22.10;13.95;;;9.60;99.90;;;;;;5055680;28;20025;-74
2021/09/24 09:44:00;;;;;;;22.58;15.70;;;9.60;99.90;;;;;;5037396;28;20021;-70
2021/09/24 09:46:35;;;;;;;16.65;12.02;;;9.60;99.90;;;;;;5037368;28;20029;-72
2021/09/24 09:49:07;;;;;;;19.27;12.50;;;9.60;99.90;;;;;;5037729;28;20033;-73
2021/09/24 09:51:37;;;;;;;16.90;12.02;;;9.60;99.90;;;;;;5055739;28;20039;-71
2021/09/24 09:54:04;;;;;;;18.75;12.63;;;9.60;99.90;;;;;;5055227;28;20025;-71
2021/09/24 09:56:40;;;;;;;20.15;13.52;;;9.60;99.90;;;;;;5037225;28;20360;-70
2021/09/24 09:59:31;;;;;;;20.40;14.20;;;9.70;99.90;;;;;;5037219;28;20383;-70
2021/09/24 10:02:18;;;;;;;14.98;10.98;;;9.70;99.90;;;;;;5037437;28;20017;-71
2021/09/24 10:04:46;;;;;;;16.45;11.45;;;9.70;99.90;;;;;;5037047;28;20032;-71
2021/09/24 10:07:19;;;;;;;14.68;10.75;;;9.70;99.90;;;;;;5055047;28;20045;-72
2021/09/24 10:09:47;;;;;;;19.10;12.07;;;9.70;99.90;;;;;;5054819;28;20029;-73
2021/09/24 10:12:23;;;;;;;15.98;11.20;;;9.70;99.90;;;;;;5054718;28;20113;-73
2021/09/24 10:14:51;;;;;;;16.75;11.77;;;9.70;99.90;;;;;;5054716;28;20029;-73
2021/09/24 10:17:18;;;;;;;15.75;10.40;;;9.80;99.90;;;;;;5036849;28;20456;-71
2021/09/24 10:19:45;;;;;;;16.00;10.02;;;9.80;99.90;;;;;;5036347;28;20032;-73
2021/09/24 10:22:12;;;;;;;17.55;10.98;;;9.80;99.90;;;;;;5036663;28;20025;-72
2021/09/24 10:24:41;;;;;;;17.27;11.85;;;9.80;99.90;;;;;;5036616;28;20534;-72
2021/09/24 10:27:12;;;;;;;15.18;10.18;;;9.80;99.90;;;;;;5054445;28;20027;-71
2021/09/24 10:29:45;;;;;;;16.90;12.05;;;9.80;99.90;;;;;;5036844;28;20390;-72
2021/09/24 10:32:21;;;;;;;17.88;11.65;;;9.80;99.90;;;;;;5054370;28;20021;-71
2021/09/24 10:35:04;;;;;;;19.77;10.63;;;9.80;99.90;;;;;;5036456;28;20031;-71
2021/09/24 10:37:35;;;;;;;15.60;11.00;;;9.80;99.90;;;;;;5036644;28;20059;-71
2021/09/24 10:40:24;;;;;;;18.17;11.50;;;9.90;99.90;;;;;;5036746;28;20387;-72
2021/09/24 10:42:51;;;;;;;17.02;11.48;;;9.90;99.90;;;;;;5036626;28;20352;-70
2021/09/24 10:45:35;;;;;;;16.35;10.95;;;9.90;99.90;;;;;;5036233;28;20115;-71
2021/09/24 10:48:23;;;;;;;37.20;17.65;;;9.90;99.90;;;;;;5054017;28;20029;-71
2021/09/24 10:50:54;;;;;;;81.82;30.73;;;10.00;99.90;;;;;;5036213;28;20384;-71
2021/09/24 10:53:26;;;;;;;50.40;22.23;;;10.00;99.90;;;;;;5054412;28;20100;-72
2021/09/24 10:55:52;;;;;;;37.65;16.63;;;10.00;99.90;;;;;;5054594;28;20082;-71
2021/09/24 10:58:27;;;;;;;64.18;25.75;;;10.00;99.90;;;;;;5053989;28;20032;-71
2021/09/24 11:01:27;;;;;;;124.25;43.08;;;10.00;99.90;;;;;;5053890;28;20475;-71
2021/09/24 11:03:58;;;;;;;180.82;56.20;;;10.00;99.90;;;;;;5054165;28;20374;-71
2021/09/24 11:06:33;;;;;;;128.65;49.42;;;10.00;99.90;;;;;;5035735;28;20041;-74
2021/09/24 11:09:00;;;;;;;134.52;52.20;;;10.00;99.90;;;;;;5053773;28;20033;-72
2021/09/24 11:11:31;;;;;;;127.05;49.55;;;10.00;99.90;;;;;;5036014;28;20048;-72
2021/09/24 11:14:02;;;;;;;130.30;50.45;;;10.10;99.90;;;;;;5053612;28;20067;-71
2021/09/24 11:16:44;;;;;;;112.20;49.30;;;10.10;99.90;;;;;;5036368;28;20395;-73
2021/09/24 11:19:27;;;;;;;115.18;41.92;;;10.20;99.90;;;;;;5053847;28;20021;-70
2021/09/24 11:21:58;;;;;;;85.25;34.13;;;10.20;99.90;;;;;;5053833;28;20033;-71
2021/09/24 11:24:32;;;;;;;61.03;24.55;;;10.20;99.90;;;;;;5053522;28;20025;-73
2021/09/24 11:27:05;;;;;;;28.58;12.85;;;10.30;99.90;;;;;;5035704;28;20056;-74
2021/09/24 11:29:31;;;;;;;39.17;18.00;;;10.30;99.90;;;;;;5036147;28;20025;-72
2021/09/24 11:31:56;;;;;;;31.17;14.77;;;10.40;99.90;;;;;;5034913;28;20059;-71
2021/09/24 11:34:39;;;;;;;27.17;14.25;;;10.50;99.90;;;;;;5053267;28;20475;-72
2021/09/24 11:37:08;;;;;;;38.58;17.45;;;10.60;99.90;;;;;;5035626;28;20099;-71
2021/09/24 11:39:36;;;;;;;36.75;17.23;;;10.70;99.90;;;;;;5053401;28;20033;-72
2021/09/24 11:42:11;;;;;;;41.15;18.30;;;10.80;99.90;;;;;;5053470;28;20021;-72
2021/09/24 11:44:47;;;;;;;60.03;25.85;;;10.80;99.90;;;;;;5035762;28;20034;-72
2021/09/24 11:47:21;;;;;;;104.32;38.45;;;10.90;99.90;;;;;;5053743;28;20090;-72
2021/09/24 11:49:54;;;;;;;113.93;42.90;;;10.90;99.90;;;;;;5035673;28;20090;-71
2021/09/24 11:52:22;;;;;;;80.30;33.47;;;11.00;99.90;;;;;;5035563;28;20083;-72
2021/09/24 11:54:48;;;;;;;58.95;25.33;;;11.10;99.90;;;;;;5035385;28;20021;-70
2021/09/24 11:57:17;;;;;;;86.60;34.05;;;11.20;99.90;;;;;;5053286;28;20031;-70
2021/09/24 11:59:44;;;;;;;33.10;17.60;;;11.30;99.90;;;;;;5035260;28;20037;-72
2021/09/24 12:02:20;;;;;;;30.88;15.73;;;11.40;99.90;;;;;;5053306;28;20417;-71
2021/09/24 12:04:57;;;;;;;30.45;16.65;;;11.60;99.90;;;;;;5035346;28;20036;-70
2021/09/24 12:07:23;;;;;;;23.83;15.07;;;11.60;99.90;;;;;;5035084;28;20048;-72
2021/09/24 12:09:58;;;;;;;41.50;19.70;;;11.70;99.90;;;;;;5035098;28;20115;-72
2021/09/24 12:12:24;;;;;;;47.38;21.58;;;11.70;99.90;;;;;;5035277;28;20048;-72
2021/09/24 12:14:55;;;;;;;64.18;28.10;;;11.70;99.90;;;;;;5053223;28;20086;-72
2021/09/24 12:17:26;;;;;;;70.90;28.90;;;11.70;99.90;;;;;;5035049;28;20025;-71
2021/09/24 12:19:52;;;;;;;67.85;30.33;;;11.80;99.90;;;;;;5053017;28;20051;-72
2021/09/24 12:22:19;;;;;;;89.95;34.83;;;11.80;99.90;;;;;;5052589;28;20420;-72
2021/09/24 12:24:47;;;;;;;84.38;35.92;;;11.90;99.90;;;;;;5052793;28;20035;-74
2021/09/24 12:27:37;;;;;;;81.90;33.60;;;12.00;99.90;;;;;;5034991;28;20033;-70
2021/09/24 12:30:17;;;;;;;90.68;39.08;;;12.20;99.90;;;;;;5053030;28;20033;-71
2021/09/24 12:32:43;;;;;;;90.15;41.75;;;12.40;99.90;;;;;;5052613;28;20475;-71
2021/09/24 12:35:12;;;;;;;78.03;41.33;;;12.60;99.90;;;;;;5052859;28;20107;-71
2021/09/24 12:37:45;;;;;;;78.25;38.08;;;12.70;99.90;;;;;;5052749;28;20029;-71
2021/09/24 12:40:17;;;;;;;75.20;36.03;;;12.80;99.90;;;;;;5035454;28;20120;-71
2021/09/24 12:42:52;;;;;;;66.20;35.72;;;12.90;99.90;;;;;;5053073;28;20025;-71